sensor_id;sensor_type;location;lat;lon;timestamp;temperature;humidity
3548;DHT22;1788;49.400;11.092;2022-12-22T00:01:16;9.40;78.70
3548;DHT22;1788;49.400;11.092;2022-12-22T00:03:42;9.30;78.50
3548;DHT22;1788;49.400;11.092;2022-12-22T00:06:09;9.40;78.70
3548;DHT22;1788;49.400;11.092;2022-12-22T00:08:37;9.30;78.50
3548;DHT22;1788;49.400;11.092;2022-12-22T00:11:05;9.30;78.50
3548;DHT22;1788;49.400;11.092;2022-12-22T00:13:30;9.40;78.70
3548;DHT22;1788;49.400;11.092;2022-12-22T00:15:57;9.30;78.60
3548;DHT22;1788;49.400;11.092;2022-12-22T00:18:24;9.30;78.60
3548;DHT22;1788;49.400;11.092;2022-12-22T00:20:50;9.30;78.70
3548;DHT22;1788;49.400;11.092;2022-12-22T00:23:17;9.30;78.60
3548;DHT22;1788;49.400;11.092;2022-12-22T00:25:44;9.30;78.70
3548;DHT22;1788;49.400;11.092;2022-12-22T00:28:12;9.30;78.70
3548;DHT22;1788;49.400;11.092;2022-12-22T00:30:38;9.30;78.70
3548;DHT22;1788;49.400;11.092;2022-12-22T00:33:04;9.30;78.70
3548;DHT22;1788;49.400;11.092;2022-12-22T00:35:31;9.30;78.70
3548;DHT22;1788;49.400;11.092;2022-12-22T00:37:57;9.30;78.70
3548;DHT22;1788;49.400;11.092;2022-12-22T00:40:25;9.30;78.80
3548;DHT22;1788;49.400;11.092;2022-12-22T00:42:51;9.30;78.90
3548;DHT22;1788;49.400;11.092;2022-12-22T00:45:18;9.30;78.80
3548;DHT22;1788;49.400;11.092;2022-12-22T00:47:45;9.30;78.90
3548;DHT22;1788;49.400;11.092;2022-12-22T00:50:11;9.30;78.90
3548;DHT22;1788;49.400;11.092;2022-12-22T00:52:38;9.30;78.90
3548;DHT22;1788;49.400;11.092;2022-12-22T00:57:32;9.30;79.00
3548;DHT22;1788;49.400;11.092;2022-12-22T00:59:58;9.30;79.00
3548;DHT22;1788;49.400;11.092;2022-12-22T01:02:25;9.30;79.00
3548;DHT22;1788;49.400;11.092;2022-12-22T01:04:52;9.30;79.00
3548;DHT22;1788;49.400;11.092;2022-12-22T01:07:18;9.30;79.00
3548;DHT22;1788;49.400;11.092;2022-12-22T01:09:48;9.30;78.90
3548;DHT22;1788;49.400;11.092;2022-12-22T01:14:38;9.30;79.00
3548;DHT22;1788;49.400;11.092;2022-12-22T01:17:05;9.30;79.10
3548;DHT22;1788;49.400;11.092;2022-12-22T01:19:31;9.30;79.00
3548;DHT22;1788;49.400;11.092;2022-12-22T01:21:58;9.30;79.00
3548;DHT22;1788;49.400;11.092;2022-12-22T01:24:25;9.30;79.10
3548;DHT22;1788;49.400;11.092;2022-12-22T01:26:52;9.30;79.10
3548;DHT22;1788;49.400;11.092;2022-12-22T01:29:19;9.30;79.10
3548;DHT22;1788;49.400;11.092;2022-12-22T01:31:45;9.30;79.10
3548;DHT22;1788;49.400;11.092;2022-12-22T01:34:12;9.30;79.00
3548;DHT22;1788;49.400;11.092;2022-12-22T01:36:38;9.30;79.00
3548;DHT22;1788;49.400;11.092;2022-12-22T01:39:05;9.30;79.00
3548;DHT22;1788;49.400;11.092;2022-12-22T01:41:32;9.30;79.80
3548;DHT22;1788;49.400;11.092;2022-12-22T01:43:58;9.30;79.10
3548;DHT22;1788;49.400;11.092;2022-12-22T01:46:26;9.30;79.10
3548;DHT22;1788;49.400;11.092;2022-12-22T01:48:51;9.30;79.10
3548;DHT22;1788;49.400;11.092;2022-12-22T01:51:20;9.30;79.00
3548;DHT22;1788;49.400;11.092;2022-12-22T01:53:45;9.30;79.00
3548;DHT22;1788;49.400;11.092;2022-12-22T01:56:11;9.30;79.00
3548;DHT22;1788;49.400;11.092;2022-12-22T01:58:40;9.30;79.10
3548;DHT22;1788;49.400;11.092;2022-12-22T02:01:05;9.30;79.10
3548;DHT22;1788;49.400;11.092;2022-12-22T02:03:32;9.30;79.10
3548;DHT22;1788;49.400;11.092;2022-12-22T02:06:04;9.30;79.10
3548;DHT22;1788;49.400;11.092;2022-12-22T02:08:26;9.30;79.10
3548;DHT22;1788;49.400;11.092;2022-12-22T02:15:47;9.30;79.10
3548;DHT22;1788;49.400;11.092;2022-12-22T02:23:08;9.40;79.30
3548;DHT22;1788;49.400;11.092;2022-12-22T02:27:59;9.40;79.20
3548;DHT22;1788;49.400;11.092;2022-12-22T02:30:25;9.40;79.20
3548;DHT22;1788;49.400;11.092;2022-12-22T02:32:52;9.40;79.30
3548;DHT22;1788;49.400;11.092;2022-12-22T02:35:18;9.40;79.30
3548;DHT22;1788;49.400;11.092;2022-12-22T02:42:40;9.40;79.40
3548;DHT22;1788;49.400;11.092;2022-12-22T02:45:09;9.40;79.40
3548;DHT22;1788;49.400;11.092;2022-12-22T02:50:02;9.50;80.10
3548;DHT22;1788;49.400;11.092;2022-12-22T02:54:52;9.50;79.40
3548;DHT22;1788;49.400;11.092;2022-12-22T02:57:19;9.50;79.40
3548;DHT22;1788;49.400;11.092;2022-12-22T02:59:45;9.50;79.40
3548;DHT22;1788;49.400;11.092;2022-12-22T03:02:13;9.60;79.40
3548;DHT22;1788;49.400;11.092;2022-12-22T03:04:39;9.50;79.30
3548;DHT22;1788;49.400;11.092;2022-12-22T03:07:06;9.60;79.40
3548;DHT22;1788;49.400;11.092;2022-12-22T03:09:32;9.60;79.30
3548;DHT22;1788;49.400;11.092;2022-12-22T03:11:59;9.60;79.30
3548;DHT22;1788;49.400;11.092;2022-12-22T03:14:26;9.60;79.30
3548;DHT22;1788;49.400;11.092;2022-12-22T03:16:53;9.60;79.30
3548;DHT22;1788;49.400;11.092;2022-12-22T03:19:20;9.60;79.20
3548;DHT22;1788;49.400;11.092;2022-12-22T03:21:46;9.60;79.30
3548;DHT22;1788;49.400;11.092;2022-12-22T03:24:13;9.60;79.30
3548;DHT22;1788;49.400;11.092;2022-12-22T03:26:40;9.60;79.30
3548;DHT22;1788;49.400;11.092;2022-12-22T03:29:07;9.60;79.30
3548;DHT22;1788;49.400;11.092;2022-12-22T03:31:33;9.60;80.10
3548;DHT22;1788;49.400;11.092;2022-12-22T03:34:00;9.60;79.30
3548;DHT22;1788;49.400;11.092;2022-12-22T03:36:27;9.60;79.40
3548;DHT22;1788;49.400;11.092;2022-12-22T03:38:53;9.60;79.50
3548;DHT22;1788;49.400;11.092;2022-12-22T03:41:20;9.70;79.50
3548;DHT22;1788;49.400;11.092;2022-12-22T03:43:47;9.70;79.50
3548;DHT22;1788;49.400;11.092;2022-12-22T03:46:14;9.70;79.60
3548;DHT22;1788;49.400;11.092;2022-12-22T03:48:40;9.70;79.60
3548;DHT22;1788;49.400;11.092;2022-12-22T03:51:06;9.70;79.60
3548;DHT22;1788;49.400;11.092;2022-12-22T03:53:33;9.70;79.60
3548;DHT22;1788;49.400;11.092;2022-12-22T03:56:00;9.70;79.50
3548;DHT22;1788;49.400;11.092;2022-12-22T03:58:26;9.70;79.60
3548;DHT22;1788;49.400;11.092;2022-12-22T04:01:03;9.80;79.70
3548;DHT22;1788;49.400;11.092;2022-12-22T04:03:19;9.70;79.50
3548;DHT22;1788;49.400;11.092;2022-12-22T04:05:46;9.80;79.60
3548;DHT22;1788;49.400;11.092;2022-12-22T04:08:13;9.80;79.60
3548;DHT22;1788;49.400;11.092;2022-12-22T04:10:39;9.80;79.60
3548;DHT22;1788;49.400;11.092;2022-12-22T04:13:06;9.80;79.60
3548;DHT22;1788;49.400;11.092;2022-12-22T04:15:33;9.80;79.60
3548;DHT22;1788;49.400;11.092;2022-12-22T04:17:59;9.80;79.60
3548;DHT22;1788;49.400;11.092;2022-12-22T04:20:26;9.90;79.70
3548;DHT22;1788;49.400;11.092;2022-12-22T04:22:53;9.90;79.80
3548;DHT22;1788;49.400;11.092;2022-12-22T04:25:19;9.90;79.80
3548;DHT22;1788;49.400;11.092;2022-12-22T04:27:46;9.90;79.70
3548;DHT22;1788;49.400;11.092;2022-12-22T04:30:12;9.90;79.70
3548;DHT22;1788;49.400;11.092;2022-12-22T04:32:39;9.90;79.60
3548;DHT22;1788;49.400;11.092;2022-12-22T04:35:06;10.00;78.30
3548;DHT22;1788;49.400;11.092;2022-12-22T04:37:33;10.00;78.30
3548;DHT22;1788;49.400;11.092;2022-12-22T04:39:59;10.00;78.30
3548;DHT22;1788;49.400;11.092;2022-12-22T04:42:27;10.00;78.20
3548;DHT22;1788;49.400;11.092;2022-12-22T04:44:53;9.90;79.30
3548;DHT22;1788;49.400;11.092;2022-12-22T04:47:20;9.90;79.30
3548;DHT22;1788;49.400;11.092;2022-12-22T04:49:47;9.90;79.50
3548;DHT22;1788;49.400;11.092;2022-12-22T04:52:13;9.90;79.60
3548;DHT22;1788;49.400;11.092;2022-12-22T04:54:40;9.90;79.60
3548;DHT22;1788;49.400;11.092;2022-12-22T04:57:06;10.00;78.50
3548;DHT22;1788;49.400;11.092;2022-12-22T04:59:33;9.90;79.60
3548;DHT22;1788;49.400;11.092;2022-12-22T05:02:00;10.00;78.50
3548;DHT22;1788;49.400;11.092;2022-12-22T05:04:26;9.90;79.60
3548;DHT22;1788;49.400;11.092;2022-12-22T05:06:53;9.90;79.70
3548;DHT22;1788;49.400;11.092;2022-12-22T05:09:20;10.00;78.10
3548;DHT22;1788;49.400;11.092;2022-12-22T05:11:46;10.00;78.60
3548;DHT22;1788;49.400;11.092;2022-12-22T05:14:13;10.00;78.60
3548;DHT22;1788;49.400;11.092;2022-12-22T05:19:07;10.00;78.50
3548;DHT22;1788;49.400;11.092;2022-12-22T05:21:33;10.00;78.30
3548;DHT22;1788;49.400;11.092;2022-12-22T05:24:00;10.00;78.30
3548;DHT22;1788;49.400;11.092;2022-12-22T05:26:27;10.00;78.30
3548;DHT22;1788;49.400;11.092;2022-12-22T05:28:54;10.00;78.40
3548;DHT22;1788;49.400;11.092;2022-12-22T05:31:23;10.00;78.30
3548;DHT22;1788;49.400;11.092;2022-12-22T05:33:50;10.00;78.30
3548;DHT22;1788;49.400;11.092;2022-12-22T05:38:44;10.00;78.30
3548;DHT22;1788;49.400;11.092;2022-12-22T05:43:37;10.00;78.30
3548;DHT22;1788;49.400;11.092;2022-12-22T05:46:05;10.00;78.30
3548;DHT22;1788;49.400;11.092;2022-12-22T05:48:30;10.00;78.30
3548;DHT22;1788;49.400;11.092;2022-12-22T05:50:57;10.00;78.40
3548;DHT22;1788;49.400;11.092;2022-12-22T05:53:24;10.00;78.30
3548;DHT22;1788;49.400;11.092;2022-12-22T05:55:50;10.00;78.40
3548;DHT22;1788;49.400;11.092;2022-12-22T05:58:17;10.00;78.50
3548;DHT22;1788;49.400;11.092;2022-12-22T06:00:43;10.00;78.50
3548;DHT22;1788;49.400;11.092;2022-12-22T06:03:10;10.00;78.60
3548;DHT22;1788;49.400;11.092;2022-12-22T06:05:37;10.00;78.60
3548;DHT22;1788;49.400;11.092;2022-12-22T06:08:04;10.00;78.60
3548;DHT22;1788;49.400;11.092;2022-12-22T06:10:31;10.00;78.50
3548;DHT22;1788;49.400;11.092;2022-12-22T06:12:58;10.00;78.50
3548;DHT22;1788;49.400;11.092;2022-12-22T06:15:25;10.00;78.80
3548;DHT22;1788;49.400;11.092;2022-12-22T06:17:52;10.00;78.50
3548;DHT22;1788;49.400;11.092;2022-12-22T06:20:18;10.10;78.60
3548;DHT22;1788;49.400;11.092;2022-12-22T06:22:45;10.10;78.50
3548;DHT22;1788;49.400;11.092;2022-12-22T06:25:12;10.00;78.40
3548;DHT22;1788;49.400;11.092;2022-12-22T06:27:39;10.10;78.60
3548;DHT22;1788;49.400;11.092;2022-12-22T06:30:06;10.10;78.60
3548;DHT22;1788;49.400;11.092;2022-12-22T06:35:00;10.10;78.50
3548;DHT22;1788;49.400;11.092;2022-12-22T06:37:26;10.10;78.50
3548;DHT22;1788;49.400;11.092;2022-12-22T06:39:53;10.10;78.40
3548;DHT22;1788;49.400;11.092;2022-12-22T06:42:19;10.20;78.50
3548;DHT22;1788;49.400;11.092;2022-12-22T06:44:46;10.20;78.50
3548;DHT22;1788;49.400;11.092;2022-12-22T06:47:13;10.20;78.50
3548;DHT22;1788;49.400;11.092;2022-12-22T06:49:39;10.20;78.40
3548;DHT22;1788;49.400;11.092;2022-12-22T06:52:06;10.20;78.30
3548;DHT22;1788;49.400;11.092;2022-12-22T06:54:32;10.30;78.40
3548;DHT22;1788;49.400;11.092;2022-12-22T06:56:59;10.30;78.30
3548;DHT22;1788;49.400;11.092;2022-12-22T06:59:26;10.30;78.30
3548;DHT22;1788;49.400;11.092;2022-12-22T07:01:52;10.20;78.20
3548;DHT22;1788;49.400;11.092;2022-12-22T07:04:20;10.30;78.30
3548;DHT22;1788;49.400;11.092;2022-12-22T07:06:46;10.30;78.30
3548;DHT22;1788;49.400;11.092;2022-12-22T07:09:13;10.30;78.30
3548;DHT22;1788;49.400;11.092;2022-12-22T07:11:40;10.30;78.60
3548;DHT22;1788;49.400;11.092;2022-12-22T07:14:08;10.30;78.30
3548;DHT22;1788;49.400;11.092;2022-12-22T07:16:34;10.30;78.40
3548;DHT22;1788;49.400;11.092;2022-12-22T07:19:01;10.30;78.30
3548;DHT22;1788;49.400;11.092;2022-12-22T07:21:28;10.30;78.30
3548;DHT22;1788;49.400;11.092;2022-12-22T07:23:54;10.30;78.40
3548;DHT22;1788;49.400;11.092;2022-12-22T07:26:21;10.30;78.50
3548;DHT22;1788;49.400;11.092;2022-12-22T07:28:48;10.30;79.20
3548;DHT22;1788;49.400;11.092;2022-12-22T07:31:16;10.30;78.60
3548;DHT22;1788;49.400;11.092;2022-12-22T07:33:42;10.30;78.60
3548;DHT22;1788;49.400;11.092;2022-12-22T07:36:10;10.30;78.60
3548;DHT22;1788;49.400;11.092;2022-12-22T07:38:36;10.30;78.60
3548;DHT22;1788;49.400;11.092;2022-12-22T07:41:02;10.40;78.70
3548;DHT22;1788;49.400;11.092;2022-12-22T07:43:29;10.40;78.60
3548;DHT22;1788;49.400;11.092;2022-12-22T07:45:55;10.40;78.60
3548;DHT22;1788;49.400;11.092;2022-12-22T07:48:22;10.40;78.70
3548;DHT22;1788;49.400;11.092;2022-12-22T07:50:48;10.40;78.70
3548;DHT22;1788;49.400;11.092;2022-12-22T07:53:15;10.40;78.60
3548;DHT22;1788;49.400;11.092;2022-12-22T07:55:42;10.40;78.60
3548;DHT22;1788;49.400;11.092;2022-12-22T07:58:08;10.40;78.70
3548;DHT22;1788;49.400;11.092;2022-12-22T08:00:35;10.40;78.70
3548;DHT22;1788;49.400;11.092;2022-12-22T08:03:02;10.40;78.60
3548;DHT22;1788;49.400;11.092;2022-12-22T08:05:29;10.40;79.30
3548;DHT22;1788;49.400;11.092;2022-12-22T08:07:56;10.40;78.50
3548;DHT22;1788;49.400;11.092;2022-12-22T08:10:22;10.50;78.70
3548;DHT22;1788;49.400;11.092;2022-12-22T08:12:49;10.50;78.70
3548;DHT22;1788;49.400;11.092;2022-12-22T08:15:15;10.40;78.60
3548;DHT22;1788;49.400;11.092;2022-12-22T08:17:43;10.50;78.80
3548;DHT22;1788;49.400;11.092;2022-12-22T08:20:09;10.50;78.70
3548;DHT22;1788;49.400;11.092;2022-12-22T08:22:36;10.50;78.70
3548;DHT22;1788;49.400;11.092;2022-12-22T08:25:03;10.50;78.80
3548;DHT22;1788;49.400;11.092;2022-12-22T08:29:57;10.60;79.10
3548;DHT22;1788;49.400;11.092;2022-12-22T08:32:23;10.60;79.10
3548;DHT22;1788;49.400;11.092;2022-12-22T08:34:50;10.60;79.20
3548;DHT22;1788;49.400;11.092;2022-12-22T08:37:17;10.70;79.20
3548;DHT22;1788;49.400;11.092;2022-12-22T08:39:44;10.70;79.10
3548;DHT22;1788;49.400;11.092;2022-12-22T08:42:10;10.80;79.10
3548;DHT22;1788;49.400;11.092;2022-12-22T08:44:36;10.80;79.00
3548;DHT22;1788;49.400;11.092;2022-12-22T08:47:03;10.90;78.90
3548;DHT22;1788;49.400;11.092;2022-12-22T08:49:29;10.90;78.90
3548;DHT22;1788;49.400;11.092;2022-12-22T08:51:57;11.00;78.90
3548;DHT22;1788;49.400;11.092;2022-12-22T08:54:23;11.00;78.90
3548;DHT22;1788;49.400;11.092;2022-12-22T08:56:50;11.00;78.80
3548;DHT22;1788;49.400;11.092;2022-12-22T08:59:17;11.10;78.70
3548;DHT22;1788;49.400;11.092;2022-12-22T09:01:44;11.10;78.60
3548;DHT22;1788;49.400;11.092;2022-12-22T09:06:37;11.20;78.50
3548;DHT22;1788;49.400;11.092;2022-12-22T09:09:04;11.20;78.30
3548;DHT22;1788;49.400;11.092;2022-12-22T09:11:30;11.20;78.20
3548;DHT22;1788;49.400;11.092;2022-12-22T09:13:58;11.30;78.20
3548;DHT22;1788;49.400;11.092;2022-12-22T09:16:24;11.30;78.20
3548;DHT22;1788;49.400;11.092;2022-12-22T09:18:50;11.40;79.00
3548;DHT22;1788;49.400;11.092;2022-12-22T09:21:17;11.40;78.00
3548;DHT22;1788;49.400;11.092;2022-12-22T09:23:44;11.50;77.90
3548;DHT22;1788;49.400;11.092;2022-12-22T09:26:11;11.50;77.80
3548;DHT22;1788;49.400;11.092;2022-12-22T09:28:37;11.60;77.70
3548;DHT22;1788;49.400;11.092;2022-12-22T09:31:04;11.60;77.60
3548;DHT22;1788;49.400;11.092;2022-12-22T09:33:31;11.70;77.50
3548;DHT22;1788;49.400;11.092;2022-12-22T09:35:57;11.70;77.30
3548;DHT22;1788;49.400;11.092;2022-12-22T09:38:25;11.70;77.10
3548;DHT22;1788;49.400;11.092;2022-12-22T09:40:50;11.80;77.10
3548;DHT22;1788;49.400;11.092;2022-12-22T09:43:17;11.80;76.90
3548;DHT22;1788;49.400;11.092;2022-12-22T09:45:44;11.90;76.90
3548;DHT22;1788;49.400;11.092;2022-12-22T09:48:11;11.90;76.90
3548;DHT22;1788;49.400;11.092;2022-12-22T09:50:37;11.90;76.70
3548;DHT22;1788;49.400;11.092;2022-12-22T09:53:06;12.10;76.80
3548;DHT22;1788;49.400;11.092;2022-12-22T09:57:59;12.30;77.50
3548;DHT22;1788;49.400;11.092;2022-12-22T10:00:26;12.20;76.60
3548;DHT22;1788;49.400;11.092;2022-12-22T10:07:45;12.60;76.10
3548;DHT22;1788;49.400;11.092;2022-12-22T10:12:39;12.70;75.40
3548;DHT22;1788;49.400;11.092;2022-12-22T10:15:09;12.90;75.40
3548;DHT22;1788;49.400;11.092;2022-12-22T10:17:33;12.80;74.60
3548;DHT22;1788;49.400;11.092;2022-12-22T10:22:30;12.80;74.10
3548;DHT22;1788;49.400;11.092;2022-12-22T10:24:54;12.80;73.80
3548;DHT22;1788;49.400;11.092;2022-12-22T10:27:21;12.70;73.60
3548;DHT22;1788;49.400;11.092;2022-12-22T10:29:47;12.70;73.40
3548;DHT22;1788;49.400;11.092;2022-12-22T10:32:16;12.60;73.00
3548;DHT22;1788;49.400;11.092;2022-12-22T10:37:08;12.60;73.00
3548;DHT22;1788;49.400;11.092;2022-12-22T10:39:36;12.60;73.00
3548;DHT22;1788;49.400;11.092;2022-12-22T10:44:30;12.50;73.00
3548;DHT22;1788;49.400;11.092;2022-12-22T10:46:57;12.50;72.90
3548;DHT22;1788;49.400;11.092;2022-12-22T10:49:24;12.60;73.00
3548;DHT22;1788;49.400;11.092;2022-12-22T10:56:45;12.60;72.50
3548;DHT22;1788;49.400;11.092;2022-12-22T10:59:15;12.60;73.20
3548;DHT22;1788;49.400;11.092;2022-12-22T11:01:39;12.60;72.40
3548;DHT22;1788;49.400;11.092;2022-12-22T11:06:32;12.60;72.10
3548;DHT22;1788;49.400;11.092;2022-12-22T11:08:59;12.60;72.00
3548;DHT22;1788;49.400;11.092;2022-12-22T11:11:31;12.60;71.70
3548;DHT22;1788;49.400;11.092;2022-12-22T11:31:07;12.50;71.40
3548;DHT22;1788;49.400;11.092;2022-12-22T11:40:52;12.40;71.70
3548;DHT22;1788;49.400;11.092;2022-12-22T11:55:32;12.40;71.70
3548;DHT22;1788;49.400;11.092;2022-12-22T12:00:23;12.40;71.60
3548;DHT22;1788;49.400;11.092;2022-12-22T12:07:44;12.30;71.30
3548;DHT22;1788;49.400;11.092;2022-12-22T12:32:14;12.00;72.80
3548;DHT22;1788;49.400;11.092;2022-12-22T12:34:39;12.00;72.00
3548;DHT22;1788;49.400;11.092;2022-12-22T12:44:27;12.00;72.70
3548;DHT22;1788;49.400;11.092;2022-12-22T12:59:05;11.80;73.10
3548;DHT22;1788;49.400;11.092;2022-12-22T13:03:59;11.70;73.40
3548;DHT22;1788;49.400;11.092;2022-12-22T13:11:27;11.60;74.00
3548;DHT22;1788;49.400;11.092;2022-12-22T13:13:47;11.60;73.90
3548;DHT22;1788;49.400;11.092;2022-12-22T13:21:07;11.50;74.30
3548;DHT22;1788;49.400;11.092;2022-12-22T13:28:27;11.50;75.00
3548;DHT22;1788;49.400;11.092;2022-12-22T13:30:56;11.40;74.80
3548;DHT22;1788;49.400;11.092;2022-12-22T13:33:23;11.40;75.30
3548;DHT22;1788;49.400;11.092;2022-12-22T13:35:48;11.40;75.10
3548;DHT22;1788;49.400;11.092;2022-12-22T13:40:42;11.40;75.30
3548;DHT22;1788;49.400;11.092;2022-12-22T13:43:10;11.40;75.40
3548;DHT22;1788;49.400;11.092;2022-12-22T13:52:55;11.50;75.80
3548;DHT22;1788;49.400;11.092;2022-12-22T13:55:24;11.50;75.80
3548;DHT22;1788;49.400;11.092;2022-12-22T13:57:50;11.50;75.80
3548;DHT22;1788;49.400;11.092;2022-12-22T14:00:18;11.50;75.90
3548;DHT22;1788;49.400;11.092;2022-12-22T14:02:43;11.50;75.90
3548;DHT22;1788;49.400;11.092;2022-12-22T14:05:11;11.60;76.00
3548;DHT22;1788;49.400;11.092;2022-12-22T14:07:37;11.60;76.00
3548;DHT22;1788;49.400;11.092;2022-12-22T14:10:04;11.60;76.00
3548;DHT22;1788;49.400;11.092;2022-12-22T14:12:35;11.60;76.00
3548;DHT22;1788;49.400;11.092;2022-12-22T14:14:58;11.60;76.00
3548;DHT22;1788;49.400;11.092;2022-12-22T14:19:52;11.60;76.00
3548;DHT22;1788;49.400;11.092;2022-12-22T14:22:19;11.60;76.00
3548;DHT22;1788;49.400;11.092;2022-12-22T14:27:15;11.60;76.00
3548;DHT22;1788;49.400;11.092;2022-12-22T14:29:37;11.60;76.00
3548;DHT22;1788;49.400;11.092;2022-12-22T14:32:04;11.60;76.00
3548;DHT22;1788;49.400;11.092;2022-12-22T14:34:31;11.70;76.10
3548;DHT22;1788;49.400;11.092;2022-12-22T14:36:57;11.70;76.20
3548;DHT22;1788;49.400;11.092;2022-12-22T14:39:26;11.70;76.20
3548;DHT22;1788;49.400;11.092;2022-12-22T14:41:53;11.60;76.10
3548;DHT22;1788;49.400;11.092;2022-12-22T14:44:21;11.70;76.20
3548;DHT22;1788;49.400;11.092;2022-12-22T14:47:02;11.70;76.20
3548;DHT22;1788;49.400;11.092;2022-12-22T14:49:15;11.70;77.00
3548;DHT22;1788;49.400;11.092;2022-12-22T14:51:40;11.70;76.20
3548;DHT22;1788;49.400;11.092;2022-12-22T14:56:34;11.70;76.10
3548;DHT22;1788;49.400;11.092;2022-12-22T15:01:27;11.70;76.00
3548;DHT22;1788;49.400;11.092;2022-12-22T15:06:21;11.70;75.90
3548;DHT22;1788;49.400;11.092;2022-12-22T15:08:47;11.70;75.90
3548;DHT22;1788;49.400;11.092;2022-12-22T15:11:15;11.70;76.00
3548;DHT22;1788;49.400;11.092;2022-12-22T15:13:41;11.70;76.00
3548;DHT22;1788;49.400;11.092;2022-12-22T15:16:08;11.70;76.00
3548;DHT22;1788;49.400;11.092;2022-12-22T15:18:34;11.70;76.00
3548;DHT22;1788;49.400;11.092;2022-12-22T15:21:00;11.70;76.00
3548;DHT22;1788;49.400;11.092;2022-12-22T15:23:27;11.70;76.00
3548;DHT22;1788;49.400;11.092;2022-12-22T15:25:54;11.60;75.80
3548;DHT22;1788;49.400;11.092;2022-12-22T15:28:20;11.70;75.90
3548;DHT22;1788;49.400;11.092;2022-12-22T15:30:47;11.60;75.90
3548;DHT22;1788;49.400;11.092;2022-12-22T15:33:14;11.60;76.00
3548;DHT22;1788;49.400;11.092;2022-12-22T15:35:40;11.60;76.00
3548;DHT22;1788;49.400;11.092;2022-12-22T15:40:33;11.60;76.00
3548;DHT22;1788;49.400;11.092;2022-12-22T15:43:01;11.50;76.00
3548;DHT22;1788;49.400;11.092;2022-12-22T15:45:27;11.50;75.90
3548;DHT22;1788;49.400;11.092;2022-12-22T15:47:54;11.50;76.00
3548;DHT22;1788;49.400;11.092;2022-12-22T15:50:22;11.50;76.10
3548;DHT22;1788;49.400;11.092;2022-12-22T15:52:49;11.50;76.10
3548;DHT22;1788;49.400;11.092;2022-12-22T15:55:14;11.50;76.20
3548;DHT22;1788;49.400;11.092;2022-12-22T15:57:41;11.40;76.10
3548;DHT22;1788;49.400;11.092;2022-12-22T16:00:09;11.40;76.20
3548;DHT22;1788;49.400;11.092;2022-12-22T16:02:34;11.40;76.20
3548;DHT22;1788;49.400;11.092;2022-12-22T16:05:01;11.40;76.30
3548;DHT22;1788;49.400;11.092;2022-12-22T16:07:28;11.40;76.30
3548;DHT22;1788;49.400;11.092;2022-12-22T16:09:54;11.40;76.30
3548;DHT22;1788;49.400;11.092;2022-12-22T16:12:21;11.40;76.40
3548;DHT22;1788;49.400;11.092;2022-12-22T16:14:48;11.40;76.40
3548;DHT22;1788;49.400;11.092;2022-12-22T16:19:42;11.40;76.40
3548;DHT22;1788;49.400;11.092;2022-12-22T16:22:10;11.40;76.30
3548;DHT22;1788;49.400;11.092;2022-12-22T16:24:37;11.40;76.30
3548;DHT22;1788;49.400;11.092;2022-12-22T16:27:03;11.40;76.30
3548;DHT22;1788;49.400;11.092;2022-12-22T16:29:30;11.40;76.30
3548;DHT22;1788;49.400;11.092;2022-12-22T16:32:01;11.40;77.00
3548;DHT22;1788;49.400;11.092;2022-12-22T16:34:23;11.40;76.20
3548;DHT22;1788;49.400;11.092;2022-12-22T16:36:50;11.40;76.20
3548;DHT22;1788;49.400;11.092;2022-12-22T16:39:17;11.50;76.30
3548;DHT22;1788;49.400;11.092;2022-12-22T16:41:43;11.50;76.20
3548;DHT22;1788;49.400;11.092;2022-12-22T16:44:11;11.50;76.20
3548;DHT22;1788;49.400;11.092;2022-12-22T16:46:37;11.50;76.20
3548;DHT22;1788;49.400;11.092;2022-12-22T16:49:05;11.50;76.10
3548;DHT22;1788;49.400;11.092;2022-12-22T16:51:32;11.50;76.10
3548;DHT22;1788;49.400;11.092;2022-12-22T16:53:59;11.50;75.90
3548;DHT22;1788;49.400;11.092;2022-12-22T16:56:26;11.50;75.90
3548;DHT22;1788;49.400;11.092;2022-12-22T16:58:52;11.50;75.90
3548;DHT22;1788;49.400;11.092;2022-12-22T17:01:27;11.50;75.80
3548;DHT22;1788;49.400;11.092;2022-12-22T17:03:45;11.50;75.80
3548;DHT22;1788;49.400;11.092;2022-12-22T17:06:12;11.50;75.80
3548;DHT22;1788;49.400;11.092;2022-12-22T17:08:38;11.50;75.80
3548;DHT22;1788;49.400;11.092;2022-12-22T17:11:06;11.50;75.80
3548;DHT22;1788;49.400;11.092;2022-12-22T17:13:32;11.50;75.80
3548;DHT22;1788;49.400;11.092;2022-12-22T17:15:58;11.50;75.80
3548;DHT22;1788;49.400;11.092;2022-12-22T17:18:25;11.50;75.90
3548;DHT22;1788;49.400;11.092;2022-12-22T17:20:53;11.40;75.80
3548;DHT22;1788;49.400;11.092;2022-12-22T17:25:45;11.40;75.80
3548;DHT22;1788;49.400;11.092;2022-12-22T17:28:11;11.40;75.90
3548;DHT22;1788;49.400;11.092;2022-12-22T17:30:39;11.40;76.10
3548;DHT22;1788;49.400;11.092;2022-12-22T17:33:09;11.40;76.10
3548;DHT22;1788;49.400;11.092;2022-12-22T17:35:32;11.40;76.10
3548;DHT22;1788;49.400;11.092;2022-12-22T17:37:59;11.40;76.10
3548;DHT22;1788;49.400;11.092;2022-12-22T17:40:26;11.40;76.20
3548;DHT22;1788;49.400;11.092;2022-12-22T17:42:52;11.40;76.20
3548;DHT22;1788;49.400;11.092;2022-12-22T17:45:19;11.40;76.20
3548;DHT22;1788;49.400;11.092;2022-12-22T17:47:45;11.40;76.30
3548;DHT22;1788;49.400;11.092;2022-12-22T17:50:13;11.40;76.30
3548;DHT22;1788;49.400;11.092;2022-12-22T17:52:40;11.40;76.40
3548;DHT22;1788;49.400;11.092;2022-12-22T17:55:15;11.40;76.40
3548;DHT22;1788;49.400;11.092;2022-12-22T17:57:33;11.40;76.40
3548;DHT22;1788;49.400;11.092;2022-12-22T18:02:27;11.30;76.30
3548;DHT22;1788;49.400;11.092;2022-12-22T18:04:54;11.30;76.40
3548;DHT22;1788;49.400;11.092;2022-12-22T18:07:21;11.30;76.40
3548;DHT22;1788;49.400;11.092;2022-12-22T18:09:48;11.40;76.60
3548;DHT22;1788;49.400;11.092;2022-12-22T18:12:15;11.30;76.50
3548;DHT22;1788;49.400;11.092;2022-12-22T18:14:41;11.30;76.50
3548;DHT22;1788;49.400;11.092;2022-12-22T18:17:14;11.30;76.50
3548;DHT22;1788;49.400;11.092;2022-12-22T18:19:34;11.30;76.60
3548;DHT22;1788;49.400;11.092;2022-12-22T18:22:01;11.30;76.60
3548;DHT22;1788;49.400;11.092;2022-12-22T18:24:28;11.30;76.60
3548;DHT22;1788;49.400;11.092;2022-12-22T18:26:55;11.30;76.70
3548;DHT22;1788;49.400;11.092;2022-12-22T18:29:21;11.30;76.70
3548;DHT22;1788;49.400;11.092;2022-12-22T18:31:48;11.30;76.70
3548;DHT22;1788;49.400;11.092;2022-12-22T18:34:15;11.30;76.70
3548;DHT22;1788;49.400;11.092;2022-12-22T18:36:41;11.30;76.70
3548;DHT22;1788;49.400;11.092;2022-12-22T18:39:12;11.30;76.80
3548;DHT22;1788;49.400;11.092;2022-12-22T18:41:35;11.30;76.80
3548;DHT22;1788;49.400;11.092;2022-12-22T18:44:03;11.30;76.80
3548;DHT22;1788;49.400;11.092;2022-12-22T18:46:29;11.30;76.80
3548;DHT22;1788;49.400;11.092;2022-12-22T18:48:56;11.30;76.80
3548;DHT22;1788;49.400;11.092;2022-12-22T18:51:23;11.30;76.80
3548;DHT22;1788;49.400;11.092;2022-12-22T18:53:50;11.30;76.90
3548;DHT22;1788;49.400;11.092;2022-12-22T18:56:16;11.30;76.90
3548;DHT22;1788;49.400;11.092;2022-12-22T18:58:43;11.30;76.90
3548;DHT22;1788;49.400;11.092;2022-12-22T19:03:37;11.30;76.90
3548;DHT22;1788;49.400;11.092;2022-12-22T19:06:04;11.30;76.90
3548;DHT22;1788;49.400;11.092;2022-12-22T19:08:30;11.30;76.90